Point Isabel — WDD7993 — position and weather

sailwx.info

Track history (hours):
 
Tides and Currents Weather Stations Pressure Air Temp Water Temp Dewpoint Dewpoint Depression Visibility Wind Speed Wind Dir Waves Ship Positions

Point Isabel

Owner: Higman Barge Lines, Inc., Orange, TX. More information available from US FCC via Universal Licensing System and Coast Guard Vessel Documentation Center.

Last reported at 2017-Nov-12 06:11 UTC. Time now 2017-Nov-18 06:56 UTC.
Position N 29°59' W 090°24'.

Length 24 m; draft 2.6 m.

Type: Towing. MMSI: 367193780.

Date/timePositionNaut miles runAvg speedWind from/ knotsBaromVisibWave heightAir tempDewpointWater temp
2017-Nov-12 06:11N 29°59' W 090°24'0 0.0
2017-Nov-12 06:00N 29°59' W 090°24'0 0.0
2017-Nov-12 05:30N 29°59' W 090°24'0 0.0
2017-Nov-12 05:00N 29°59' W 090°24'0 0.0
2017-Nov-12 04:30N 29°59' W 090°24'0 0.0
2017-Nov-12 03:51N 29°59' W 090°24'0 0.0
2017-Nov-12 03:30N 29°59' W 090°24'  
2017-Nov-08 05:50N 29°59' W 090°24'0 0.0
2017-Nov-07 09:31N 29°59' W 090°24'0 0.0
2017-Nov-07 09:25N 29°59' W 090°24'8 4.0
2017-Nov-07 07:20N 29°58' W 090°15'8 1.7
2017-Nov-07 02:49N 29°57' W 090°23'  
2017-Nov-04 05:57N 29°38' W 090°21'3 6.5
2017-Nov-04 05:26N 29°35' W 090°23'3 6.1
2017-Nov-04 04:57N 29°33' W 090°26'4 8.2
2017-Nov-04 04:30N 29°34' W 090°30'4 8.1
2017-Nov-04 04:00N 29°34' W 090°35'4 7.6
2017-Nov-04 03:30N 29°35' W 090°39'4 7.0
2017-Nov-04 03:00N 29°36' W 090°43'3 6.5
2017-Nov-04 02:31N 29°34' W 090°45'4 7.6
2017-Nov-04 02:00N 29°32' W 090°49'4 8.6
2017-Nov-04 01:30N 29°33' W 090°54'57 3.0
2017-Nov-03 06:22N 29°51' W 091°56'3 8.2
2017-Nov-03 06:00N 29°50' W 091°60'4 8.2
2017-Nov-03 05:30N 29°48' W 092°04'4 7.6
2017-Nov-03 05:00N 29°47' W 092°08'3 6.9
2017-Nov-03 04:30N 29°47' W 092°12'0 0.4
2017-Nov-03 04:00N 29°47' W 092°12'2 4.9
2017-Nov-03 03:30N 29°48' W 092°15'4 7.8
2017-Nov-03 03:01N 29°50' W 092°19'4 7.4
2017-Nov-03 02:30N 29°52' W 092°22'36 7.5
2017-Nov-02 21:37N 29°56' W 093°04'1 5.8
2017-Nov-02 21:26N 29°56' W 093°05'3 7.1
2017-Nov-02 21:00N 29°56' W 093°09'4 7.0
2017-Nov-02 20:30N 29°58' W 093°12'3 6.3
2017-Nov-02 20:00N 30°01' W 093°14'3 6.7
2017-Nov-02 19:30N 30°04' W 093°16'3 6.5
2017-Nov-02 19:00N 30°06' W 093°19'4 7.7
2017-Nov-02 18:30N 30°04' W 093°22'4 8.0
2017-Nov-02 18:00N 30°04' W 093°27'4 7.7
2017-Nov-02 17:30N 30°04' W 093°31'4 7.5
2017-Nov-02 17:00N 30°04' W 093°36'4 7.5
2017-Nov-02 16:30N 30°04' W 093°40'4 1.7
2017-Nov-02 14:08N 30°05' W 093°44'0 0.0
2017-Nov-02 13:46N 30°05' W 093°44'0 0.0
2017-Nov-02 13:04N 30°05' W 093°44'0 0.0
2017-Nov-02 12:39N 30°05' W 093°44'0 0.0
2017-Nov-02 12:29N 30°05' W 093°44'0 0.0
2017-Nov-02 11:54N 30°05' W 093°44'0 0.0
2017-Nov-02 09:55N 30°05' W 093°44'0 0.0
2017-Nov-02 07:31N 30°05' W 093°44'0 0.0
2017-Nov-02 07:08N 30°05' W 093°44'0 0.0
2017-Nov-02 06:43N 30°05' W 093°44'  
Track history (hours):
 
Tides and Currents Weather Stations Pressure Air Temp Water Temp Dewpoint Dewpoint Depression Visibility Wind Speed Wind Dir Waves Ship Positions

Point Isabel

Owner: Higman Barge Lines, Inc., Orange, TX. More information available from US FCC via Universal Licensing System and Coast Guard Vessel Documentation Center.

Last reported at 2017-Nov-12 06:11 UTC. Time now 2017-Nov-18 06:56 UTC.
Position N 29°59' W 090°24'.

Length 24 m; draft 2.6 m.

Type: Towing. MMSI: 367193780.

Date/timePositionNaut miles runAvg speedWind from/ knotsBaromVisibWave heightAir tempDewpointWater temp
2017-Nov-12 06:11N 29°59' W 090°24'0 0.0
2017-Nov-12 06:00N 29°59' W 090°24'0 0.0
2017-Nov-12 05:30N 29°59' W 090°24'0 0.0
2017-Nov-12 05:00N 29°59' W 090°24'0 0.0
2017-Nov-12 04:30N 29°59' W 090°24'0 0.0
2017-Nov-12 03:51N 29°59' W 090°24'0 0.0
2017-Nov-12 03:30N 29°59' W 090°24'  
2017-Nov-08 05:50N 29°59' W 090°24'0 0.0
2017-Nov-07 09:31N 29°59' W 090°24'0 0.0
2017-Nov-07 09:25N 29°59' W 090°24'8 4.0
2017-Nov-07 07:20N 29°58' W 090°15'8 1.7
2017-Nov-07 02:49N 29°57' W 090°23'  
2017-Nov-04 05:57N 29°38' W 090°21'3 6.5
2017-Nov-04 05:26N 29°35' W 090°23'3 6.1
2017-Nov-04 04:57N 29°33' W 090°26'4 8.2
2017-Nov-04 04:30N 29°34' W 090°30'4 8.1
2017-Nov-04 04:00N 29°34' W 090°35'4 7.6
2017-Nov-04 03:30N 29°35' W 090°39'4 7.0
2017-Nov-04 03:00N 29°36' W 090°43'3 6.5
2017-Nov-04 02:31N 29°34' W 090°45'4 7.6
2017-Nov-04 02:00N 29°32' W 090°49'4 8.6
2017-Nov-04 01:30N 29°33' W 090°54'57 3.0
2017-Nov-03 06:22N 29°51' W 091°56'3 8.2
2017-Nov-03 06:00N 29°50' W 091°60'4 8.2
2017-Nov-03 05:30N 29°48' W 092°04'4 7.6
2017-Nov-03 05:00N 29°47' W 092°08'3 6.9
2017-Nov-03 04:30N 29°47' W 092°12'0 0.4
2017-Nov-03 04:00N 29°47' W 092°12'2 4.9
2017-Nov-03 03:30N 29°48' W 092°15'4 7.8
2017-Nov-03 03:01N 29°50' W 092°19'4 7.4
2017-Nov-03 02:30N 29°52' W 092°22'36 7.5
2017-Nov-02 21:37N 29°56' W 093°04'1 5.8
2017-Nov-02 21:26N 29°56' W 093°05'3 7.1
2017-Nov-02 21:00N 29°56' W 093°09'4 7.0
2017-Nov-02 20:30N 29°58' W 093°12'3 6.3
2017-Nov-02 20:00N 30°01' W 093°14'3 6.7
2017-Nov-02 19:30N 30°04' W 093°16'3 6.5
2017-Nov-02 19:00N 30°06' W 093°19'4 7.7
2017-Nov-02 18:30N 30°04' W 093°22'4 8.0
2017-Nov-02 18:00N 30°04' W 093°27'4 7.7
2017-Nov-02 17:30N 30°04' W 093°31'4 7.5
2017-Nov-02 17:00N 30°04' W 093°36'4 7.5
2017-Nov-02 16:30N 30°04' W 093°40'4 1.7
2017-Nov-02 14:08N 30°05' W 093°44'0 0.0
2017-Nov-02 13:46N 30°05' W 093°44'0 0.0
2017-Nov-02 13:04N 30°05' W 093°44'0 0.0
2017-Nov-02 12:39N 30°05' W 093°44'0 0.0
2017-Nov-02 12:29N 30°05' W 093°44'0 0.0
2017-Nov-02 11:54N 30°05' W 093°44'0 0.0
2017-Nov-02 09:55N 30°05' W 093°44'0 0.0
2017-Nov-02 07:31N 30°05' W 093°44'0 0.0
2017-Nov-02 07:08N 30°05' W 093°44'0 0.0
2017-Nov-02 06:43N 30°05' W 093°44'  

Dump ship's entire track history